Time;durP1;ratioP1;P1;durP2;ratioP2;P2;SDS_P1;SDS_P2;PMS_P1;PMS_P2;Temp;Humidity;BMP_temperature;BMP_pressure;BME280_temperature;BME280_humidity;BME280_pressure;Samples;Min_cycle;Max_cycle;Signal;HPM_P1;HPM_P2
2022/10/09 00:01:31;;;;;;;27.58;7.47;;;;;;;30.67;27.00;101016.09;5042291;28;20049;-79
2022/10/09 00:04:04;;;;;;;7.40;6.37;;;;;;;30.61;28.14;101012.88;5047695;28;20080;-76
2022/10/09 00:06:34;;;;;;;11.85;6.53;;;;;;;30.54;26.40;101012.31;5040612;28;20045;-78
2022/10/09 00:09:04;;;;;;;10.23;6.25;;;;;;;30.50;27.88;101010.72;5032651;28;20499;-78
2022/10/09 00:11:35;;;;;;;10.90;7.05;;;;;;;30.42;27.19;101021.78;5042099;28;20053;-80
2022/10/09 00:14:04;;;;;;;10.03;7.13;;;;;;;30.36;27.86;101021.22;5049630;28;20040;-83
2022/10/09 00:16:33;;;;;;;12.55;6.60;;;;;;;30.30;28.13;101010.84;5047724;28;20045;-81
2022/10/09 00:19:02;;;;;;;14.23;6.85;;;;;;;30.24;28.30;101010.16;5049288;28;20052;-82
2022/10/09 00:21:33;;;;;;;11.20;6.97;;;;;;;30.16;29.06;101012.34;5042018;28;20057;-83
2022/10/09 00:24:04;;;;;;;13.60;6.82;;;;;;;30.08;29.46;101006.53;5041777;28;20063;-81
2022/10/09 00:26:35;;;;;;;8.25;6.80;;;;;;;30.00;29.33;101012.22;5033475;28;20049;-80
2022/10/09 00:29:03;;;;;;;12.65;6.70;;;;;;;29.93;30.27;101009.91;5036302;28;20051;-81
2022/10/09 00:31:41;;;;;;;14.75;7.63;;;;;;;29.85;29.64;101010.28;5044123;28;20072;-83
2022/10/09 00:34:17;;;;;;;11.95;7.43;;;;;;;29.76;31.08;101003.56;5049254;28;20593;-82
2022/10/09 00:36:45;;;;;;;10.52;7.82;;;;;;;29.66;31.50;101002.22;5047234;28;20386;-79
2022/10/09 00:39:14;;;;;;;16.75;7.95;;;;;;;29.57;31.13;100999.97;5038191;28;20403;-81
2022/10/09 00:41:45;;;;;;;10.35;7.28;;;;;;;29.45;32.28;101004.94;5034644;28;20045;-81
2022/10/09 00:44:51;;;;;;;12.90;7.90;;;;;;;29.30;30.80;101003.00;5041782;28;20052;-81
2022/10/09 00:47:24;;;;;;;10.13;7.53;;;;;;;29.18;31.59;100999.06;5046077;28;20054;-80
2022/10/09 00:49:55;;;;;;;12.77;7.20;;;;;;;29.13;32.27;101008.19;5048180;28;20049;-81
2022/10/09 00:52:26;;;;;;;11.20;7.30;;;;;;;29.03;32.37;101005.91;5038445;28;20052;-83
2022/10/09 00:54:56;;;;;;;11.68;8.02;;;;;;;28.96;32.03;101009.75;5036265;28;20523;-79
2022/10/09 00:57:27;;;;;;;11.65;7.93;;;;;;;28.88;32.88;101006.56;5044506;28;20052;-82
2022/10/09 00:59:56;;;;;;;10.65;7.40;;;;;;;28.80;33.45;101004.22;5048355;28;20049;-79
2022/10/09 01:02:24;;;;;;;11.90;7.88;;;;;;;28.71;33.10;101003.75;5048144;28;20499;-80
2022/10/09 01:04:54;;;;;;;16.58;8.40;;;;;;;28.61;33.30;100998.81;5049803;28;20553;-81
2022/10/09 01:07:38;;;;;;;27.52;10.20;;;;;;;28.50;33.40;100995.75;5047451;28;20052;-81
2022/10/09 01:10:20;;;;;;;42.85;11.85;;;;;;;28.37;34.61;101003.31;5050850;28;20466;-81
2022/10/09 01:13:00;;;;;;;20.70;8.93;;;;;;;28.22;33.47;101003.94;5053828;28;20131;-78
2022/10/09 01:15:32;;;;;;;16.35;7.82;;;;;;;28.11;33.57;101001.72;5045749;28;20628;-81
2022/10/09 01:18:07;;;;;;;18.30;8.82;;;;;;;28.02;35.24;100996.75;5039900;28;20107;-84
2022/10/09 01:20:47;;;;;;;21.08;9.27;;;;;;;27.92;34.56;101001.59;5045398;28;20513;-76
2022/10/09 01:23:45;;;;;;;14.38;7.75;;;;;;;27.81;33.95;101003.75;5049069;28;20048;-76
2022/10/09 01:26:29;;;;;;;24.10;9.43;;;;;;;27.65;34.48;100998.16;5051703;28;20055;-77
2022/10/09 01:29:03;;;;;;;53.55;13.10;;;;;;;27.53;36.04;101003.91;5047189;28;20555;-75
2022/10/09 01:31:36;;;;;;;51.65;13.57;;;;;;;27.39;35.75;101006.22;5044690;28;20048;-76
2022/10/09 01:34:12;;;;;;;50.13;13.75;;;;;;;27.27;36.58;101016.38;5044970;27;20053;-75
2022/10/09 01:36:42;;;;;;;39.40;10.80;;;;;;;27.12;37.06;101004.47;5042474;28;20538;-75
2022/10/09 01:39:15;;;;;;;21.63;8.80;;;;;;;27.00;36.41;101009.34;5047428;28;20052;-75
2022/10/09 01:41:44;;;;;;;16.95;8.88;;;;;;;26.85;35.84;101003.66;5047448;28;20087;-74
2022/10/09 01:44:23;;;;;;;18.48;8.82;;;;;;;26.73;37.04;101004.06;5042551;28;20048;-74
2022/10/09 01:46:52;;;;;;;15.38;7.97;;;;;;;26.62;37.11;101019.47;5037404;28;20406;-73
2022/10/09 01:49:41;;;;;;;17.25;8.85;;;;;;;26.50;35.94;101013.63;5042163;28;20041;-74
2022/10/09 01:52:22;;;;;;;16.85;8.68;;;;;;;26.35;37.31;101027.38;5044362;28;20442;-75
2022/10/09 01:55:07;;;;;;;11.90;8.75;;;;;;;26.20;38.20;101023.41;5040588;28;20403;-78
2022/10/09 01:57:41;;;;;;;30.95;11.43;;;;;;;26.04;39.36;101027.47;5046201;28;20041;-81
2022/10/09 02:00:13;;;;;;;14.50;8.90;;;;;;;25.87;36.88;101018.25;5044047;28;20069;-83
2022/10/09 02:02:43;;;;;;;11.93;8.68;;;;;;;25.84;38.25;101020.97;5035376;28;20053;-86
2022/10/09 02:05:16;;;;;;;14.35;9.10;;;;;;;25.77;37.79;101026.47;5050743;28;20045;-87
2022/10/09 02:07:44;;;;;;;14.50;8.35;;;;;;;25.65;38.27;101027.69;5044433;28;20045;-87
2022/10/09 02:10:14;;;;;;;15.48;9.13;;;;;;;25.53;38.43;101028.91;5044713;28;20049;-86
2022/10/09 02:12:46;;;;;;;13.77;9.50;;;;;;;25.43;38.60;101030.09;5049242;28;20100;-85
2022/10/09 02:15:17;;;;;;;12.95;8.93;;;;;;;25.34;39.05;101033.88;5040758;28;20061;-84
2022/10/09 02:17:49;;;;;;;17.75;9.93;;;;;;;25.24;39.46;101027.06;5050099;28;20116;-82
2022/10/09 02:20:25;;;;;;;14.98;9.70;;;;;;;25.06;40.68;101039.00;5041896;28;20403;-81
2022/10/09 02:22:56;;;;;;;13.98;9.43;;;;;;;24.92;40.97;101033.19;5046565;28;20048;-82
2022/10/09 02:25:25;;;;;;;15.05;10.80;;;;;;;24.79;40.91;101036.16;5038537;28;20483;-79
2022/10/09 02:27:54;;;;;;;14.48;9.52;;;;;;;24.70;41.39;101036.38;5046822;28;20379;-84
2022/10/09 02:30:27;;;;;;;14.52;10.40;;;;;;;24.64;40.79;101052.41;5039623;28;20053;-83
2022/10/09 02:32:56;;;;;;;14.70;10.32;;;;;;;24.60;41.45;101056.00;5048633;28;20052;-83
2022/10/09 02:35:25;;;;;;;14.15;9.98;;;;;;;24.52;42.41;101047.41;5044782;28;20060;-83
2022/10/09 02:37:54;;;;;;;15.40;10.57;;;;;;;24.49;41.38;101050.09;5047421;28;20563;-83
2022/10/09 02:40:22;;;;;;;18.77;10.57;;;;;;;24.46;42.03;101051.91;5051776;28;20590;-83
2022/10/09 02:42:51;;;;;;;15.60;10.73;;;;;;;24.46;42.24;101051.03;5036708;28;20112;-81
2022/10/09 02:45:19;;;;;;;15.05;9.98;;;;;;;24.45;43.62;101055.44;5049226;28;20049;-80
2022/10/09 02:47:50;;;;;;;14.95;10.57;;;;;;;24.45;44.02;101047.50;5050064;28;20045;-83
2022/10/09 02:50:18;;;;;;;15.23;10.30;;;;;;;24.45;43.46;101052.81;5047436;28;20123;-84
2022/10/09 02:52:47;;;;;;;14.38;10.65;;;;;;;24.42;43.16;101050.25;5050545;28;20406;-82
2022/10/09 02:55:15;;;;;;;19.13;11.45;;;;;;;24.36;43.24;101053.00;5034105;28;20049;-82
2022/10/09 02:57:44;;;;;;;18.30;11.90;;;;;;;24.30;43.40;101050.50;5044723;28;20048;-84
2022/10/09 03:00:14;;;;;;;21.20;11.52;;;;;;;24.19;42.82;101049.88;5042154;28;20052;-81
2022/10/09 03:02:42;;;;;;;20.48;12.32;;;;;;;24.22;42.79;101058.63;5046409;28;20052;-83
2022/10/09 03:05:13;;;;;;;64.13;18.92;;;;;;;24.17;43.17;101064.94;5044083;28;20060;-83
2022/10/09 03:07:49;;;;;;;30.67;13.65;;;;;;;24.12;42.79;101065.03;5050018;28;20037;-82
2022/10/09 03:10:17;;;;;;;33.35;14.88;;;;;;;24.09;43.01;101067.72;5040102;28;20071;-82
2022/10/09 03:12:46;;;;;;;52.33;16.38;;;;;;;24.02;44.02;101066.97;5047275;28;20057;-81
2022/10/09 03:15:16;;;;;;;41.97;15.35;;;;;;;23.99;44.21;101071.47;5040366;28;20064;-82
2022/10/09 03:17:45;;;;;;;28.85;13.32;;;;;;;23.97;44.50;101071.50;5047162;28;20045;-82
2022/10/09 03:20:15;;;;;;;22.77;12.52;;;;;;;23.93;44.47;101063.66;5039133;28;20053;-83
2022/10/09 03:22:43;;;;;;;18.85;12.57;;;;;;;23.91;43.48;101066.31;5048805;28;20513;-85
2022/10/09 03:25:12;;;;;;;17.58;12.77;;;;;;;23.88;43.50;101062.91;5042677;28;20041;-84
2022/10/09 03:27:41;;;;;;;18.88;12.82;;;;;;;23.84;44.40;101064.72;5042453;28;20678;-82
2022/10/09 03:30:11;;;;;;;19.27;13.05;;;;;;;23.82;43.84;101069.16;5042570;28;20135;-82
2022/10/09 03:32:39;;;;;;;18.88;13.55;;;;;;;23.76;43.49;101066.66;5045934;28;20076;-83
2022/10/09 03:35:09;;;;;;;19.65;13.20;;;;;;;23.78;43.84;101070.16;5045419;27;20476;-84
2022/10/09 03:37:39;;;;;;;18.52;13.20;;;;;;;23.74;44.28;101077.25;5046030;28;20071;-85
2022/10/09 03:40:08;;;;;;;15.73;12.05;;;;;;;23.68;44.35;101081.75;5043663;28;20720;-81
2022/10/09 03:42:37;;;;;;;18.83;12.65;;;;;;;23.63;44.15;101079.19;5041360;28;20478;-84
2022/10/09 03:45:06;;;;;;;19.33;12.77;;;;;;;23.58;44.32;101079.28;5041046;28;20060;-81
2022/10/09 03:47:35;;;;;;;20.85;13.90;;;;;;;23.55;44.29;101082.00;5041700;28;20060;-83
2022/10/09 03:50:04;;;;;;;17.13;12.45;;;;;;;23.49;44.43;101075.97;5044230;28;20045;-82
2022/10/09 03:52:32;;;;;;;20.70;12.98;;;;;;;23.43;44.81;101092.78;5046805;28;20056;-86
2022/10/09 03:55:02;;;;;;;18.10;12.70;;;;;;;23.37;44.71;101082.34;5041714;28;20473;-85
2022/10/09 03:57:31;;;;;;;18.63;12.30;;;;;;;23.31;44.84;101083.31;5046551;28;20442;-85
2022/10/09 04:00:00;;;;;;;19.30;13.02;;;;;;;23.29;46.17;101084.25;5045409;28;20575;-87
2022/10/09 04:02:28;;;;;;;21.08;13.27;;;;;;;23.25;46.47;101082.56;5044566;28;20044;-84
2022/10/09 04:04:57;;;;;;;18.17;13.18;;;;;;;23.20;46.57;101094.09;5047229;28;20053;-86
2022/10/09 04:07:25;;;;;;;18.77;14.07;;;;;;;23.14;46.36;101086.25;5053388;28;20605;-86
2022/10/09 04:09:54;;;;;;;18.80;13.65;;;;;;;23.09;46.21;101090.75;5043560;28;20045;-85
2022/10/09 04:12:24;;;;;;;19.13;13.38;;;;;;;23.05;46.15;101096.97;5051235;28;20514;-83
2022/10/09 04:14:53;;;;;;;22.88;14.43;;;;;;;23.00;46.41;101101.47;5042203;28;20486;-80
2022/10/09 04:17:21;;;;;;;22.00;14.50;;;;;;;22.95;46.93;101100.63;5044230;28;20041;-83
2022/10/09 04:19:50;;;;;;;21.02;15.15;;;;;;;22.89;46.85;101109.53;5051466;28;20052;-85
2022/10/09 04:22:18;;;;;;;19.95;13.85;;;;;;;22.83;47.02;101108.75;5044073;28;20037;-86
2022/10/09 04:24:47;;;;;;;22.83;15.00;;;;;;;22.78;47.15;101109.69;5048918;28;20112;-82
2022/10/09 04:27:16;;;;;;;21.23;14.93;;;;;;;22.74;47.80;101118.53;5053540;28;20419;-86
2022/10/09 04:29:46;;;;;;;30.10;14.82;;;;;;;22.68;47.57;101113.38;5044997;28;20246;-83
2022/10/09 04:32:14;;;;;;;18.65;13.82;;;;;;;22.64;47.62;101114.28;5049539;28;20044;-83
2022/10/09 04:34:43;;;;;;;21.90;14.13;;;;;;;22.58;47.83;101109.09;5057519;28;20059;-85
2022/10/09 04:37:11;;;;;;;18.27;13.65;;;;;;;22.51;48.00;101115.34;5051346;28;20109;-84
2022/10/09 04:39:40;;;;;;;21.80;13.82;;;;;;;22.44;48.42;101109.28;5037299;28;20115;-83
2022/10/09 04:42:09;;;;;;;20.63;13.90;;;;;;;22.37;48.33;101116.41;5040111;28;20049;-83
2022/10/09 04:44:37;;;;;;;20.52;14.07;;;;;;;22.32;48.78;101115.63;5042307;28;20461;-85
2022/10/09 04:47:07;;;;;;;20.90;14.10;;;;;;;22.28;48.94;101108.63;5038376;28;20495;-82
2022/10/09 04:49:36;;;;;;;22.30;14.25;;;;;;;22.24;48.54;101117.50;5037349;28;20049;-85
2022/10/09 04:52:05;;;;;;;19.42;14.13;;;;;;;22.18;48.82;101117.53;5040138;28;20430;-85
2022/10/09 04:54:33;;;;;;;21.52;13.98;;;;;;;22.12;49.19;101113.19;5038207;28;21218;-83
2022/10/09 04:57:02;;;;;;;20.80;13.73;;;;;;;22.08;48.79;101110.63;5042069;28;20056;-85
2022/10/09 04:59:30;;;;;;;20.02;14.68;;;;;;;22.03;48.85;101112.44;5045700;28;20060;-84
2022/10/09 05:01:59;;;;;;;22.20;13.70;;;;;;;22.01;49.31;101111.59;5040295;28;20514;-81
2022/10/09 05:04:29;;;;;;;19.13;14.00;;;;;;;21.95;49.43;101115.19;5040598;28;20135;-81
2022/10/09 05:06:58;;;;;;;19.27;13.95;;;;;;;21.92;49.36;101117.84;5053354;28;20433;-84
2022/10/09 05:09:27;;;;;;;19.77;14.13;;;;;;;21.86;49.70;101110.88;5055381;28;20517;-81
2022/10/09 05:11:55;;;;;;;17.70;14.43;;;;;;;21.78;50.08;101112.72;5052520;28;20041;-84
2022/10/09 05:14:24;;;;;;;20.70;15.10;;;;;;;21.80;49.65;101115.34;5050355;28;20120;-82
2022/10/09 05:16:53;;;;;;;21.52;15.20;;;;;;;21.79;49.57;101113.63;5044636;28;20095;-80
2022/10/09 05:19:21;;;;;;;20.15;14.40;;;;;;;21.78;50.06;101123.25;5038893;28;20083;-82
2022/10/09 05:21:52;;;;;;;20.92;15.35;;;;;;;21.75;49.84;101118.03;5046210;28;20051;-80
2022/10/09 05:24:20;;;;;;;21.35;14.63;;;;;;;21.71;50.53;101111.91;5043574;28;20053;-85
2022/10/09 05:26:49;;;;;;;20.40;14.15;;;;;;;21.70;50.18;101119.84;5041216;28;20045;-83
2022/10/09 05:29:18;;;;;;;20.15;14.65;;;;;;;21.69;50.31;101123.34;5040942;28;20139;-82
2022/10/09 05:31:46;;;;;;;17.75;13.75;;;;;;;21.65;50.67;101116.41;5042380;28;20056;-80
2022/10/09 05:34:15;;;;;;;18.77;14.43;;;;;;;21.61;50.26;101115.56;5046922;28;20658;-82
2022/10/09 05:36:44;;;;;;;20.33;14.40;;;;;;;21.60;50.69;101123.47;5043209;28;20050;-85
2022/10/09 05:39:14;;;;;;;21.17;14.32;;;;;;;21.55;50.61;101123.50;5056684;28;20485;-85
2022/10/09 05:41:43;;;;;;;19.88;14.10;;;;;;;21.49;50.71;101120.94;5047812;28;20494;-81
2022/10/09 05:44:12;;;;;;;20.98;14.40;;;;;;;21.44;50.89;101123.63;5037295;28;20511;-84
2022/10/09 05:46:40;;;;;;;22.58;15.27;;;;;;;21.42;51.01;101125.41;5047140;28;20499;-82
2022/10/09 05:49:11;;;;;;;20.63;14.63;;;;;;;21.40;50.82;101115.75;5042957;28;20099;-80
2022/10/09 05:51:43;;;;;;;19.30;15.15;;;;;;;21.37;51.07;101121.00;5050632;28;20503;-82
2022/10/09 05:54:17;;;;;;;25.77;15.15;;;;;;;21.33;50.93;101125.44;5048473;28;20072;-79
2022/10/09 05:56:46;;;;;;;20.27;14.30;;;;;;;21.31;51.40;101121.97;5049508;28;20057;-79
2022/10/09 05:59:21;;;;;;;22.67;14.60;;;;;;;21.23;51.45;101118.50;5049149;28;20510;-77
2022/10/09 06:01:53;;;;;;;21.73;15.93;;;;;;;21.26;51.11;101126.41;5047751;28;20438;-78
2022/10/09 06:04:23;;;;;;;20.70;15.60;;;;;;;21.21;51.66;101117.66;5042115;28;20061;-77
2022/10/09 06:06:52;;;;;;;21.48;15.40;;;;;;;21.16;51.73;101119.44;5047836;28;20100;-77
2022/10/09 06:09:24;;;;;;;22.75;16.52;;;;;;;21.10;52.53;101117.75;5039595;28;20049;-76
2022/10/09 06:11:53;;;;;;;21.35;14.95;;;;;;;21.03;54.01;101122.19;5048198;28;20049;-76
2022/10/09 06:14:23;;;;;;;24.83;15.25;;;;;;;21.00;53.19;101127.47;5047403;28;20433;-77
2022/10/09 06:16:51;;;;;;;23.85;17.23;;;;;;;20.90;53.47;101117.91;5046648;28;20096;-77
2022/10/09 06:19:21;;;;;;;22.20;15.90;;;;;;;20.84;54.28;101120.56;5043323;28;20045;-78
2022/10/09 06:21:50;;;;;;;22.00;15.45;;;;;;;20.78;55.34;101120.63;5044911;28;20037;-77
2022/10/09 06:24:23;;;;;;;23.60;15.55;;;;;;;20.71;55.46;101120.66;5040460;28;20127;-77
2022/10/09 06:26:51;;;;;;;24.25;15.95;;;;;;;20.65;56.15;101120.69;5048272;28;20410;-77
2022/10/09 06:29:20;;;;;;;29.30;16.77;;;;;;;20.60;55.35;101117.22;5042558;28;20041;-77
2022/10/09 06:31:49;;;;;;;24.30;16.52;;;;;;;20.54;55.16;101122.47;5048758;28;20045;-77
2022/10/09 06:34:18;;;;;;;24.48;15.60;;;;;;;20.45;55.57;101112.88;5045919;28;20053;-77
2022/10/09 06:36:46;;;;;;;22.67;15.75;;;;;;;20.44;56.25;101121.66;5049284;28;20045;-77
2022/10/09 06:39:15;;;;;;;22.17;16.75;;;;;;;20.36;55.99;101120.81;5041942;28;20045;-77
2022/10/09 06:41:45;;;;;;;23.17;15.90;;;;;;;20.28;55.75;101126.13;5040710;28;20054;-78
2022/10/09 06:44:15;;;;;;;24.25;16.20;;;;;;;20.22;56.12;101126.13;5037928;28;20701;-76
2022/10/09 06:46:45;;;;;;;20.73;14.98;;;;;;;20.18;56.04;101134.94;5045347;28;20068;-77
2022/10/09 06:49:14;;;;;;;25.95;17.52;;;;;;;20.13;56.40;101135.81;5047356;28;20407;-75
2022/10/09 06:51:42;;;;;;;22.50;15.77;;;;;;;19.99;56.33;101128.00;5041218;28;20483;-77
2022/10/09 06:54:14;;;;;;;21.48;15.60;;;;;;;20.02;56.72;101135.84;5048666;28;20063;-77
2022/10/09 06:56:44;;;;;;;21.45;15.27;;;;;;;19.99;57.13;101138.50;5043080;28;20072;-76
2022/10/09 06:59:13;;;;;;;20.50;14.50;;;;;;;19.95;58.02;101136.75;5049058;28;20128;-76
2022/10/09 07:01:42;;;;;;;20.90;15.35;;;;;;;19.87;58.24;101142.03;5049491;28;20037;-76
2022/10/09 07:04:13;;;;;;;18.13;12.63;;;;;;;19.81;61.73;101140.31;5048909;28;20379;-77
2022/10/09 07:06:43;;;;;;;21.05;13.63;;;;;;;19.77;59.59;101149.06;5042383;28;20107;-75
2022/10/09 07:09:13;;;;;;;24.38;13.35;;;;;;;19.72;59.56;101148.19;5045969;28;20514;-78
2022/10/09 07:11:45;;;;;;;22.02;13.45;;;;;;;19.70;62.12;101147.34;5048008;28;20056;-78
2022/10/09 07:14:15;;;;;;;23.33;12.73;;;;;;;19.64;62.19;101144.69;5043113;28;20049;-80
2022/10/09 07:16:44;;;;;;;22.40;13.32;;;;;;;19.57;63.60;101151.69;5051273;28;20129;-80
2022/10/09 07:19:14;;;;;;;20.77;13.52;;;;;;;19.44;61.26;101150.81;5050708;28;20046;-78
2022/10/09 07:21:46;;;;;;;19.15;14.40;;;;;;;19.36;62.92;101147.34;5045417;28;20134;-77
2022/10/09 07:24:15;;;;;;;19.20;11.73;;;;;;;19.30;62.31;101146.47;5043590;28;20494;-77
2022/10/09 07:26:46;;;;;;;19.50;12.35;;;;;;;19.23;63.03;101150.84;5045347;28;20044;-79
2022/10/09 07:29:22;;;;;;;22.92;11.63;;;;;;;19.16;63.17;101149.09;5039838;28;20407;-78
2022/10/09 07:31:51;;;;;;;18.10;11.73;;;;;;;19.11;63.69;101151.72;5047963;28;20065;-77
2022/10/09 07:34:19;;;;;;;18.15;11.50;;;;;;;19.04;63.79;101156.06;5049920;28;20049;-78
2022/10/09 07:36:48;;;;;;;20.17;12.43;;;;;;;19.00;64.46;101150.81;5043259;28;20053;-78
2022/10/09 07:39:18;;;;;;;18.98;12.23;;;;;;;18.91;64.70;101148.19;5039091;28;20060;-78
2022/10/09 07:41:51;;;;;;;18.73;10.75;;;;;;;18.89;65.21;101149.94;5040341;28;20150;-78
2022/10/09 07:44:19;;;;;;;17.70;10.70;;;;;;;18.85;65.89;101149.03;5048534;28;20122;-79
2022/10/09 07:46:51;;;;;;;21.70;10.70;;;;;;;18.81;65.59;101150.78;5045104;28;20056;-80
2022/10/09 07:49:20;;;;;;;26.87;12.83;;;;;;;18.78;65.13;101152.53;5030925;28;20518;-82
2022/10/09 07:51:48;;;;;;;22.85;11.50;;;;;;;18.73;65.91;101154.22;5038238;28;20469;-81
2022/10/09 07:54:17;;;;;;;19.20;10.63;;;;;;;18.67;66.66;101144.63;5047429;28;20052;-81
2022/10/09 07:56:47;;;;;;;18.48;11.57;;;;;;;18.60;66.65;101146.34;5037277;28;20053;-81
2022/10/09 07:59:17;;;;;;;18.85;10.43;;;;;;;18.53;66.71;101151.53;5037638;28;20465;-80
2022/10/09 08:01:46;;;;;;;18.70;10.55;;;;;;;18.45;67.51;101148.91;5042122;28;20045;-80
2022/10/09 08:04:14;;;;;;;21.00;11.18;;;;;;;18.43;67.68;101140.16;5039938;28;20053;-81
2022/10/09 08:06:43;;;;;;;23.05;11.82;;;;;;;18.40;67.76;101146.28;5046384;28;20055;-82
2022/10/09 08:09:11;;;;;;;19.17;11.23;;;;;;;18.37;67.35;101148.00;5047578;28;20688;-80
2022/10/09 08:11:40;;;;;;;22.00;12.02;;;;;;;18.32;67.42;101153.22;5046586;28;20037;-82
2022/10/09 08:14:14;;;;;;;18.45;11.35;;;;;;;18.25;67.07;101148.81;5039892;28;20103;-80
2022/10/09 08:16:43;;;;;;;17.77;11.02;;;;;;;18.20;67.62;101151.44;5043172;28;20704;-80
2022/10/09 08:19:11;;;;;;;17.90;11.00;;;;;;;18.14;67.38;101151.44;5047099;28;20041;-81
2022/10/09 08:21:40;;;;;;;18.73;11.98;;;;;;;18.07;68.21;101152.22;5042705;28;20063;-79
2022/10/09 08:24:11;;;;;;;17.10;9.43;;;;;;;18.03;68.60;101149.59;5038394;28;20038;-81
2022/10/09 08:26:39;;;;;;;17.40;10.95;;;;;;;17.99;68.87;101143.47;5033835;28;20042;-79
2022/10/09 08:29:12;;;;;;;18.35;10.35;;;;;;;17.93;68.84;101156.53;5040573;28;20061;-80
2022/10/09 08:31:41;;;;;;;20.63;10.85;;;;;;;17.87;69.02;101157.38;5041683;28;20041;-79
2022/10/09 08:34:11;;;;;;;20.02;11.13;;;;;;;17.80;69.47;101164.28;5033677;28;20061;-80
2022/10/09 08:36:40;;;;;;;21.35;10.48;;;;;;;17.77;69.43;101159.03;5039288;28;20592;-81
2022/10/09 08:39:08;;;;;;;20.35;12.52;;;;;;;17.70;69.98;101161.59;5038615;28;20561;-78
2022/10/09 08:41:44;;;;;;;21.00;11.05;;;;;;;17.62;69.87;101158.06;5042242;28;20571;-79
2022/10/09 08:44:19;;;;;;;16.98;11.05;;;;;;;17.57;70.35;101166.75;5038550;28;20640;-81
2022/10/09 08:46:57;;;;;;;22.10;11.75;;;;;;;17.50;70.89;101174.53;5039685;28;20044;-79
2022/10/09 08:49:29;;;;;;;17.17;10.48;;;;;;;17.38;73.37;101168.38;5039199;28;20046;-79
2022/10/09 08:52:04;;;;;;;19.23;10.70;;;;;;;17.31;73.35;101169.16;5044477;28;20045;-79
2022/10/09 08:54:36;;;;;;;20.58;11.75;;;;;;;17.28;74.87;101173.50;5032136;28;20624;-78
2022/10/09 08:57:11;;;;;;;20.25;9.45;;;;;;;17.25;77.34;101178.69;5044924;28;20620;-79
2022/10/09 08:59:42;;;;;;;18.42;9.65;;;;;;;17.18;80.72;101175.16;5039704;28;20379;-80
2022/10/09 09:02:27;;;;;;;26.20;11.27;;;;;;;17.13;80.62;101174.22;5044276;28;20061;-78
2022/10/09 09:05:09;;;;;;;18.88;10.63;;;;;;;17.12;80.70;101182.94;5037349;28;20923;-78
2022/10/09 09:07:45;;;;;;;16.73;10.52;;;;;;;17.07;81.61;101180.28;5045501;28;20060;-80
2022/10/09 09:10:20;;;;;;;19.73;9.63;;;;;;;17.03;80.06;101178.50;5039057;28;20123;-79
2022/10/09 09:12:55;;;;;;;19.48;11.27;;;;;;;16.93;78.53;101172.31;5045328;28;20108;-82
2022/10/09 09:15:43;;;;;;;24.35;10.63;;;;;;;16.89;79.39;101180.97;5030204;28;20553;-80
2022/10/09 09:18:24;;;;;;;19.15;10.98;;;;;;;16.86;80.70;101174.81;5043322;28;20041;-79
2022/10/09 09:20:54;;;;;;;17.25;9.60;;;;;;;16.81;81.21;101172.16;5046290;28;20099;-80
2022/10/09 09:23:27;;;;;;;22.33;10.93;;;;;;;16.78;80.54;101179.06;5030300;28;20414;-81
2022/10/09 09:25:58;;;;;;;14.00;8.63;;;;;;;16.75;80.06;101187.75;5040784;28;20059;-79
2022/10/09 09:28:31;;;;;;;16.42;9.35;;;;;;;16.71;80.37;101181.59;5043778;28;20492;-80
2022/10/09 09:31:06;;;;;;;21.73;10.82;;;;;;;16.68;81.25;101184.19;5040814;28;20533;-80
2022/10/09 09:33:42;;;;;;;15.98;9.20;;;;;;;16.67;80.81;101190.25;5041429;28;20088;-78
2022/10/09 09:36:20;;;;;;;19.45;9.48;;;;;;;16.67;80.25;101187.66;5047556;28;20060;-79
2022/10/09 09:38:50;;;;;;;19.13;9.48;;;;;;;16.65;80.86;101196.34;5035714;28;20558;-78
2022/10/09 09:41:19;;;;;;;15.93;8.50;;;;;;;16.60;81.04;101192.78;5037712;28;20081;-78
2022/10/09 09:43:48;;;;;;;19.15;10.23;;;;;;;16.54;82.65;101199.72;5041983;28;20426;-78
2022/10/09 09:46:21;;;;;;;19.30;9.45;;;;;;;16.50;83.18;101197.03;5050172;28;20057;-78
2022/10/09 09:48:50;;;;;;;16.85;9.13;;;;;;;16.45;84.74;101197.00;5046542;28;20491;-79
2022/10/09 09:51:23;;;;;;;19.60;9.32;;;;;;;16.41;84.31;101203.03;5045022;28;20053;-79
2022/10/09 09:53:56;;;;;;;19.02;9.23;;;;;;;16.38;84.89;101196.88;5051764;28;20136;-80
2022/10/09 09:56:36;;;;;;;16.83;8.90;;;;;;;16.34;83.30;101198.59;5052504;28;20124;-79
2022/10/09 09:59:05;;;;;;;13.88;8.20;;;;;;;16.30;83.62;101189.81;5048288;28;20518;-79
2022/10/09 10:01:36;;;;;;;19.98;8.80;;;;;;;16.27;83.64;101194.16;5045061;28;20053;-80
2022/10/09 10:04:05;;;;;;;19.90;9.20;;;;;;;16.21;82.70;101194.06;5041084;28;20403;-80
2022/10/09 10:06:35;;;;;;;14.82;9.02;;;;;;;16.17;83.67;101192.25;5039663;28;20049;-80
2022/10/09 10:09:06;;;;;;;19.77;9.90;;;;;;;16.09;85.52;101203.47;5046265;28;20045;-84
2022/10/09 10:11:35;;;;;;;25.83;8.43;;;;;;;16.02;86.81;101199.03;5040193;28;20077;-82
2022/10/09 10:14:08;;;;;;;18.63;9.15;;;;;;;15.99;85.98;101204.22;5047409;28;20597;-79
2022/10/09 10:16:40;;;;;;;18.38;8.43;;;;;;;15.98;85.60;101192.00;5040180;28;20046;-81
2022/10/09 10:19:22;;;;;;;16.65;9.75;;;;;;;15.95;85.31;101188.47;5043995;28;20557;-81
2022/10/09 10:21:57;;;;;;;14.90;8.30;;;;;;;15.94;85.05;101195.41;5044809;28;20473;-82
2022/10/09 10:24:31;;;;;;;17.35;8.15;;;;;;;15.92;85.03;101191.94;5035504;28;20052;-83
2022/10/09 10:27:04;;;;;;;21.02;9.60;;;;;;;15.92;84.54;101186.72;5047378;28;20052;-81
2022/10/09 10:29:38;;;;;;;18.85;9.23;;;;;;;15.92;84.62;101199.75;5044772;28;20045;-82
2022/10/09 10:32:16;;;;;;;19.92;8.70;;;;;;;15.89;85.16;101197.94;5045124;28;20496;-81
2022/10/09 10:34:50;;;;;;;17.40;8.48;;;;;;;15.89;85.05;101202.31;5040187;28;20396;-81
2022/10/09 10:37:30;;;;;;;15.55;8.13;;;;;;;15.84;84.19;101194.41;5045190;28;20056;-81
2022/10/09 10:40:03;;;;;;;17.13;8.75;;;;;;;15.79;84.74;101195.22;5040922;28;20045;-80
2022/10/09 10:42:49;;;;;;;14.73;8.32;;;;;;;15.70;85.39;101199.41;5048190;28;20488;-81
2022/10/09 10:45:21;;;;;;;21.45;9.43;;;;;;;15.64;85.74;101201.88;5050473;28;20425;-79
2022/10/09 10:47:55;;;;;;;15.23;8.20;;;;;;;15.57;86.05;101210.47;5046002;28;20898;-82
2022/10/09 10:50:29;;;;;;;17.02;8.90;;;;;;;15.55;86.78;101201.72;5052903;28;20060;-81
2022/10/09 10:53:06;;;;;;;19.27;9.63;;;;;;;15.52;87.38;101206.91;5046899;28;20515;-81
2022/10/09 10:55:47;;;;;;;19.00;9.13;;;;;;;15.49;87.55;101207.75;5049510;28;20053;-80
2022/10/09 10:58:28;;;;;;;17.10;9.18;;;;;;;15.47;86.97;101205.97;5045176;28;20537;-81
2022/10/09 11:01:12;;;;;;;18.23;10.07;;;;;;;15.43;86.00;101211.97;5047305;28;20376;-80
2022/10/09 11:03:59;;;;;;;14.80;9.18;;;;;;;15.37;86.74;101206.66;5046002;28;20495;-81
2022/10/09 11:06:34;;;;;;;20.90;9.50;;;;;;;15.34;87.50;101217.03;5041273;28;20045;-80
2022/10/09 11:09:10;;;;;;;15.35;8.32;;;;;;;15.27;87.04;101206.50;5047157;28;20601;-80
2022/10/09 11:11:43;;;;;;;17.45;8.65;;;;;;;15.20;88.43;101214.19;5048484;28;20118;-80
2022/10/09 11:14:27;;;;;;;12.32;7.55;;;;;;;15.14;88.00;101219.28;5040500;28;20049;-80
2022/10/09 11:17:07;;;;;;;13.02;7.78;;;;;;;15.08;88.81;101218.31;5043858;28;20554;-81
2022/10/09 11:19:53;;;;;;;19.08;8.35;;;;;;;15.09;87.75;101221.81;5051897;28;20482;-81
2022/10/09 11:22:36;;;;;;;19.30;8.73;;;;;;;15.10;87.10;101223.56;5032319;28;20114;-80
2022/10/09 11:25:29;;;;;;;18.88;7.82;;;;;;;15.12;87.15;101220.97;5039087;28;20067;-81
2022/10/09 11:28:05;;;;;;;13.52;8.60;;;;;;;15.10;87.55;101226.19;5038873;28;20314;-83
2022/10/09 11:30:41;;;;;;;17.83;8.93;;;;;;;15.09;87.60;101227.00;5044821;28;20537;-80
2022/10/09 11:33:25;;;;;;;18.25;8.35;;;;;;;15.08;87.08;101225.28;5036921;28;20056;-81